Time;durP1;ratioP1;P1;durP2;ratioP2;P2;SDS_P1;SDS_P2;PMS_P1;PMS_P2;Temp;Humidity;BMP_temperature;BMP_pressure;BME280_temperature;BME280_humidity;BME280_pressure;Samples;Min_cycle;Max_cycle;Signal;HPM_P1;HPM_P2
2021/08/27 00:01:01;;;;;;;2.90;2.70;;;;;;;;;;4993744;28;20077;-73
2021/08/27 00:03:28;;;;;;;3.08;2.60;;;;;;;;;;4994988;28;20049;-73
2021/08/27 00:05:54;;;;;;;3.50;3.20;;;;;;;;;;4994749;28;20125;-73
2021/08/27 00:08:20;;;;;;;3.05;2.83;;;;;;;;;;4994847;28;20038;-73
2021/08/27 00:10:46;;;;;;;4.40;2.95;;;;;;;;;;4994603;28;20096;-73
2021/08/27 00:13:13;;;;;;;4.25;3.17;;;;;;;;;;4994383;28;20050;-73
2021/08/27 00:15:39;;;;;;;6.88;3.03;;;;;;;;;;4994893;28;20070;-73
2021/08/27 00:18:05;;;;;;;3.50;3.00;;;;;;;;;;4994300;28;20082;-73
2021/08/27 00:20:31;;;;;;;3.20;3.00;;;;;;;;;;4994019;28;20097;-73
2021/08/27 00:22:58;;;;;;;3.60;2.85;;;;;;;;;;4994111;28;20038;-73
2021/08/27 00:25:24;;;;;;;4.57;3.25;;;;;;;;;;4994184;28;20050;-73
2021/08/27 00:27:50;;;;;;;5.10;2.95;;;;;;;;;;4995245;28;20043;-73
2021/08/27 00:30:16;;;;;;;3.63;2.70;;;;;;;;;;4994337;28;20052;-73
2021/08/27 00:32:43;;;;;;;3.60;3.20;;;;;;;;;;4994452;28;20042;-73
2021/08/27 00:35:09;;;;;;;3.78;3.28;;;;;;;;;;4994356;28;20537;-73
2021/08/27 00:37:35;;;;;;;4.00;3.17;;;;;;;;;;4994379;28;20046;-73
2021/08/27 00:40:02;;;;;;;3.40;3.10;;;;;;;;;;4993943;28;20047;-73
2021/08/27 00:42:28;;;;;;;4.82;3.13;;;;;;;;;;4994247;28;20121;-73
2021/08/27 00:44:54;;;;;;;3.63;3.25;;;;;;;;;;4994401;28;20050;-73
2021/08/27 00:47:20;;;;;;;5.47;2.83;;;;;;;;;;4991379;28;20059;-73
2021/08/27 00:49:47;;;;;;;4.63;2.88;;;;;;;;;;4985944;28;20043;-73
2021/08/27 00:52:14;;;;;;;4.97;3.83;;;;;;;;;;4975106;28;20071;-73
2021/08/27 00:54:43;;;;;;;3.55;3.22;;;;;;;;;;4980017;28;20117;-73
2021/08/27 00:57:09;;;;;;;3.60;3.15;;;;;;;;;;4974563;28;20517;-73
2021/08/27 00:59:36;;;;;;;3.92;3.10;;;;;;;;;;4974952;28;20150;-73
2021/08/27 01:02:02;;;;;;;3.30;3.00;;;;;;;;;;4985888;28;20072;-73
2021/08/27 01:04:29;;;;;;;4.60;3.00;;;;;;;;;;4986884;28;20050;-73
2021/08/27 01:07:02;;;;;;;3.35;3.05;;;;;;;;;;4962324;28;20038;-73
2021/08/27 01:09:37;;;;;;;5.57;3.13;;;;;;;;;;4985686;28;20043;-73
2021/08/27 01:12:33;;;;;;;3.92;2.90;;;;;;;;;;4986051;28;20101;-73
2021/08/27 01:15:05;;;;;;;4.38;2.75;;;;;;;;;;4968805;28;20051;-73
2021/08/27 01:17:36;;;;;;;2.90;2.67;;;;;;;;;;4986842;28;20073;-73
2021/08/27 01:20:06;;;;;;;3.95;3.03;;;;;;;;;;4980404;28;20531;-73
2021/08/27 01:22:48;;;;;;;4.00;3.08;;;;;;;;;;4985562;28;20043;-73
2021/08/27 01:25:17;;;;;;;3.22;2.92;;;;;;;;;;4986102;28;20050;-73
2021/08/27 01:27:43;;;;;;;6.18;3.05;;;;;;;;;;4979075;28;20045;-73
2021/08/27 01:30:14;;;;;;;3.25;2.95;;;;;;;;;;4987150;28;20125;-73
2021/08/27 01:32:40;;;;;;;;;;;;;;;;;;4984707;28;20050;-73
2021/08/27 01:35:08;;;;;;;4.57;2.80;;;;;;;;;;4985298;28;19965;-74
2021/08/27 01:37:34;;;;;;;3.15;2.95;;;;;;;;;;4983100;28;20561;-74
2021/08/27 01:40:01;;;;;;;3.03;2.78;;;;;;;;;;4983442;28;20047;-74
2021/08/27 01:42:28;;;;;;;3.28;2.95;;;;;;;;;;4977174;28;20040;-74
2021/08/27 01:44:56;;;;;;;4.70;2.90;;;;;;;;;;4977943;28;20043;-75
2021/08/27 01:47:24;;;;;;;6.28;3.00;;;;;;;;;;4989483;28;20148;-75
2021/08/27 01:53:14;;;;;;;3.08;2.63;;;;;;;;;;4994357;28;20038;-74
2021/08/27 01:55:40;;;;;;;4.55;2.75;;;;;;;;;;4996457;28;20047;-74
2021/08/27 01:58:07;;;;;;;3.85;2.90;;;;;;;;;;4996525;28;20053;-74
2021/08/27 02:00:33;;;;;;;3.38;2.78;;;;;;;;;;4996346;28;20038;-74
2021/08/27 02:03:00;;;;;;;4.25;2.78;;;;;;;;;;4996808;28;20069;-74
2021/08/27 02:05:27;;;;;;;3.10;2.78;;;;;;;;;;4996687;28;20501;-74
2021/08/27 02:07:54;;;;;;;5.38;3.08;;;;;;;;;;4996949;28;20042;-74
2021/08/27 02:10:20;;;;;;;2.75;2.53;;;;;;;;;;4996763;28;20556;-74
2021/08/27 02:12:46;;;;;;;3.47;2.65;;;;;;;;;;4996723;28;20046;-74
2021/08/27 02:15:12;;;;;;;3.25;2.95;;;;;;;;;;4995800;28;20516;-74
2021/08/27 02:17:38;;;;;;;3.00;2.70;;;;;;;;;;4996394;28;20046;-74
2021/08/27 02:20:05;;;;;;;3.70;2.85;;;;;;;;;;4996665;28;20067;-74
2021/08/27 02:22:33;;;;;;;3.53;2.97;;;;;;;;;;4996440;28;20046;-75
2021/08/27 02:25:01;;;;;;;3.10;2.70;;;;;;;;;;4996625;28;20038;-74
2021/08/27 02:27:28;;;;;;;7.40;3.60;;;;;;;;;;4996324;28;20043;-74
2021/08/27 02:29:55;;;;;;;3.72;2.80;;;;;;;;;;4996377;28;20060;-74
2021/08/27 02:32:22;;;;;;;4.18;2.75;;;;;;;;;;4996923;28;20064;-74
2021/08/27 02:34:49;;;;;;;4.97;3.13;;;;;;;;;;4996329;28;20129;-74
2021/08/27 02:37:16;;;;;;;5.82;3.28;;;;;;;;;;4996112;28;20045;-74
2021/08/27 02:39:42;;;;;;;4.47;2.90;;;;;;;;;;4995108;28;20406;-75
2021/08/27 02:42:09;;;;;;;3.90;2.75;;;;;;;;;;4996319;28;20491;-74
2021/08/27 02:44:35;;;;;;;2.92;2.60;;;;;;;;;;4996321;28;20092;-75
2021/08/27 02:47:02;;;;;;;3.50;3.20;;;;;;;;;;4996187;28;20054;-74
2021/08/27 02:49:28;;;;;;;3.55;3.03;;;;;;;;;;4995888;28;20038;-75
2021/08/27 02:52:12;;;;;;;3.35;3.05;;;;;;;;;;4996149;28;20057;-75
2021/08/27 02:54:50;;;;;;;5.00;2.92;;;;;;;;;;4996145;28;20104;-75
2021/08/27 02:57:16;;;;;;;4.47;3.20;;;;;;;;;;4996113;28;20502;-75
2021/08/27 02:59:44;;;;;;;4.53;3.13;;;;;;;;;;4995755;28;20054;-75
2021/08/27 03:02:15;;;;;;;3.20;2.90;;;;;;;;;;4995678;28;20042;-75
2021/08/27 03:05:13;;;;;;;3.45;3.13;;;;;;;;;;4995991;28;20049;-74
2021/08/27 03:07:44;;;;;;;3.35;3.05;;;;;;;;;;4962973;28;20057;-75
2021/08/27 03:10:12;;;;;;;3.10;2.80;;;;;;;;;;4996097;28;20042;-74
2021/08/27 03:12:56;;;;;;;4.00;3.03;;;;;;;;;;4995778;28;20049;-74
2021/08/27 03:15:30;;;;;;;4.07;3.05;;;;;;;;;;4995402;28;20119;-74
2021/08/27 03:17:58;;;;;;;5.63;3.05;;;;;;;;;;4995612;28;20507;-74
2021/08/27 03:20:26;;;;;;;4.13;3.22;;;;;;;;;;4995636;28;20046;-74
2021/08/27 03:22:55;;;;;;;3.30;3.00;;;;;;;;;;4995322;28;20077;-74
2021/08/27 03:25:22;;;;;;;3.28;2.95;;;;;;;;;;4995755;28;20519;-74
2021/08/27 03:27:50;;;;;;;4.40;3.08;;;;;;;;;;4995258;28;20042;-73
2021/08/27 03:30:17;;;;;;;4.15;3.10;;;;;;;;;;4995187;28;20134;-74
2021/08/27 03:32:48;;;;;;;6.18;3.10;;;;;;;;;;4995690;28;20186;-74
2021/08/27 03:35:16;;;;;;;3.63;2.80;;;;;;;;;;4995319;28;20054;-74
2021/08/27 03:37:42;;;;;;;3.47;3.00;;;;;;;;;;4995363;28;20079;-74
2021/08/27 03:40:10;;;;;;;4.85;3.45;;;;;;;;;;4995271;28;20058;-74
2021/08/27 03:42:37;;;;;;;3.17;2.70;;;;;;;;;;4995735;28;20172;-74
2021/08/27 03:45:03;;;;;;;4.50;3.90;;;;;;;;;;4995291;28;20047;-74
2021/08/27 03:47:31;;;;;;;5.13;4.72;;;;;;;;;;4995147;28;20063;-74
2021/08/27 03:49:57;;;;;;;6.03;2.95;;;;;;;;;;4995194;28;20034;-74
2021/08/27 03:52:24;;;;;;;3.58;2.60;;;;;;;;;;4995156;28;20038;-74
2021/08/27 03:54:51;;;;;;;5.60;3.10;;;;;;;;;;4995191;28;20073;-74
2021/08/27 03:57:17;;;;;;;4.25;2.63;;;;;;;;;;4994860;28;20097;-74
2021/08/27 03:59:45;;;;;;;6.15;2.97;;;;;;;;;;4995179;28;20145;-74
2021/08/27 04:02:11;;;;;;;3.78;3.03;;;;;;;;;;4994822;28;20048;-74
2021/08/27 04:04:38;;;;;;;2.90;2.70;;;;;;;;;;4995537;28;20046;-74
2021/08/27 04:07:04;;;;;;;4.10;2.97;;;;;;;;;;4995026;28;20038;-74
2021/08/27 04:09:31;;;;;;;3.35;3.05;;;;;;;;;;4995036;28;20062;-74
2021/08/27 04:11:58;;;;;;;4.20;3.40;;;;;;;;;;4995046;28;20146;-74
2021/08/27 04:14:24;;;;;;;5.68;3.15;;;;;;;;;;4995218;28;20050;-75
2021/08/27 04:16:50;;;;;;;4.22;3.30;;;;;;;;;;4994951;28;20049;-74
2021/08/27 04:19:17;;;;;;;5.20;3.25;;;;;;;;;;4994959;28;20529;-74
2021/08/27 04:21:43;;;;;;;3.60;3.10;;;;;;;;;;4994916;28;20125;-74
2021/08/27 04:24:10;;;;;;;3.78;3.45;;;;;;;;;;4995069;28;20525;-73
2021/08/27 04:26:36;;;;;;;3.53;3.22;;;;;;;;;;4994571;28;20402;-74
2021/08/27 04:29:03;;;;;;;4.45;3.33;;;;;;;;;;4994905;28;20038;-75
2021/08/27 04:31:29;;;;;;;5.18;3.78;;;;;;;;;;4994874;28;20038;-74
2021/08/27 04:33:55;;;;;;;4.90;3.10;;;;;;;;;;4994520;28;20066;-74
2021/08/27 04:36:22;;;;;;;3.60;3.17;;;;;;;;;;4994803;28;20125;-74
2021/08/27 04:38:50;;;;;;;3.55;3.22;;;;;;;;;;4995511;28;20046;-74
2021/08/27 04:41:16;;;;;;;5.60;3.13;;;;;;;;;;4998322;28;20138;-74
2021/08/27 04:43:42;;;;;;;3.05;2.78;;;;;;;;;;4998398;28;20042;-75
2021/08/27 04:46:11;;;;;;;5.47;3.20;;;;;;;;;;4997892;28;20441;-75
2021/08/27 04:48:37;;;;;;;4.13;2.83;;;;;;;;;;4999064;28;20049;-75
2021/08/27 04:51:03;;;;;;;3.83;3.30;;;;;;;;;;4998952;28;20485;-74
2021/08/27 04:53:29;;;;;;;4.45;3.10;;;;;;;;;;4998730;28;20038;-74
2021/08/27 04:55:55;;;;;;;5.28;3.03;;;;;;;;;;4998688;28;20121;-74
2021/08/27 04:58:24;;;;;;;3.20;2.78;;;;;;;;;;4998656;28;20501;-74
2021/08/27 05:00:51;;;;;;;3.63;3.15;;;;;;;;;;4998275;28;20030;-74
2021/08/27 05:03:17;;;;;;;3.75;3.20;;;;;;;;;;4998482;28;20043;-74
2021/08/27 05:05:43;;;;;;;6.30;3.15;;;;;;;;;;4998529;28;20042;-74
2021/08/27 05:08:09;;;;;;;3.83;3.05;;;;;;;;;;4998416;28;20042;-74
2021/08/27 05:10:35;;;;;;;3.80;3.20;;;;;;;;;;4998342;28;20120;-74
2021/08/27 05:13:01;;;;;;;4.30;3.08;;;;;;;;;;4998345;28;20078;-74
2021/08/27 05:15:28;;;;;;;5.38;3.50;;;;;;;;;;4997713;28;20575;-74
2021/08/27 05:17:54;;;;;;;3.53;3.22;;;;;;;;;;4997899;28;20574;-74
2021/08/27 05:20:20;;;;;;;3.83;2.90;;;;;;;;;;4997910;28;20039;-74
2021/08/27 05:22:46;;;;;;;7.25;4.03;;;;;;;;;;4998143;28;20042;-74
2021/08/27 05:25:12;;;;;;;5.90;3.05;;;;;;;;;;4998026;28;20498;-74
2021/08/27 05:27:39;;;;;;;4.63;3.00;;;;;;;;;;4996656;28;20046;-74
2021/08/27 05:30:06;;;;;;;6.28;3.35;;;;;;;;;;4996883;28;20164;-74
2021/08/27 05:32:32;;;;;;;3.67;3.38;;;;;;;;;;4997289;28;20077;-74
2021/08/27 05:34:59;;;;;;;4.18;3.25;;;;;;;;;;4997160;28;20046;-74
2021/08/27 05:37:25;;;;;;;4.88;2.92;;;;;;;;;;4996791;28;20038;-74
2021/08/27 05:39:51;;;;;;;3.58;3.28;;;;;;;;;;4997043;28;20046;-74
2021/08/27 05:42:17;;;;;;;3.35;2.83;;;;;;;;;;4997018;28;20065;-74
2021/08/27 05:44:43;;;;;;;7.72;5.43;;;;;;;;;;4997022;28;20145;-74
2021/08/27 05:47:10;;;;;;;4.38;3.30;;;;;;;;;;4996910;28;20525;-74
2021/08/27 05:49:36;;;;;;;4.03;3.40;;;;;;;;;;4996472;28;20048;-74
2021/08/27 05:52:02;;;;;;;4.68;3.10;;;;;;;;;;4996496;28;20038;-74
2021/08/27 05:54:30;;;;;;;5.38;3.13;;;;;;;;;;4996005;28;20054;-75
2021/08/27 05:56:56;;;;;;;3.28;2.85;;;;;;;;;;4996564;28;20048;-76
2021/08/27 05:59:23;;;;;;;4.57;3.40;;;;;;;;;;4993524;28;20054;-75
2021/08/27 06:01:49;;;;;;;7.35;3.20;;;;;;;;;;4996777;28;20034;-76
2021/08/27 06:04:15;;;;;;;7.05;3.28;;;;;;;;;;4996440;28;20406;-73
2021/08/27 06:06:41;;;;;;;4.63;3.40;;;;;;;;;;4997178;28;20042;-76
2021/08/27 06:09:07;;;;;;;3.35;3.05;;;;;;;;;;4996974;28;20054;-76
2021/08/27 06:11:37;;;;;;;5.18;3.40;;;;;;;;;;4997234;28;20042;-76
2021/08/27 06:14:07;;;;;;;5.00;3.28;;;;;;;;;;4997122;28;20516;-79
2021/08/27 06:16:33;;;;;;;3.08;2.83;;;;;;;;;;4996572;28;20034;-79
2021/08/27 06:19:02;;;;;;;5.65;3.00;;;;;;;;;;4995459;28;20046;-79
2021/08/27 06:21:28;;;;;;;3.72;2.90;;;;;;;;;;4996781;28;20501;-79
2021/08/27 06:23:54;;;;;;;6.68;3.40;;;;;;;;;;4996917;28;20129;-78
2021/08/27 06:26:20;;;;;;;5.05;3.28;;;;;;;;;;4996693;28;20038;-79
2021/08/27 06:28:47;;;;;;;4.95;3.97;;;;;;;;;;4996577;28;20130;-79
2021/08/27 06:31:13;;;;;;;3.33;3.03;;;;;;;;;;4996610;28;20064;-79
2021/08/27 06:33:40;;;;;;;3.50;3.20;;;;;;;;;;4996808;28;20042;-79
2021/08/27 06:36:06;;;;;;;3.70;3.40;;;;;;;;;;4996073;28;20442;-80
2021/08/27 06:38:32;;;;;;;4.63;3.67;;;;;;;;;;4996339;28;20042;-79
2021/08/27 06:41:00;;;;;;;3.50;3.20;;;;;;;;;;4996650;28;20485;-76
2021/08/27 06:43:27;;;;;;;4.00;3.58;;;;;;;;;;4996612;28;20042;-76
2021/08/27 06:45:55;;;;;;;6.22;3.40;;;;;;;;;;4995998;28;20057;-76
2021/08/27 06:48:21;;;;;;;3.85;3.40;;;;;;;;;;4996256;28;20081;-76
2021/08/27 06:50:47;;;;;;;3.10;2.88;;;;;;;;;;4996180;28;20045;-76
2021/08/27 06:53:13;;;;;;;3.40;3.00;;;;;;;;;;4996694;28;20042;-77
2021/08/27 06:55:40;;;;;;;4.03;3.63;;;;;;;;;;4996154;28;20039;-76
2021/08/27 06:58:06;;;;;;;4.93;3.42;;;;;;;;;;4996531;28;20035;-76
2021/08/27 07:00:32;;;;;;;4.07;3.40;;;;;;;;;;4995616;28;20053;-77
2021/08/27 07:02:59;;;;;;;3.97;3.40;;;;;;;;;;4995433;28;20166;-76
2021/08/27 07:05:25;;;;;;;6.00;3.28;;;;;;;;;;4994193;28;20117;-76
2021/08/27 07:07:52;;;;;;;4.05;3.65;;;;;;;;;;4994758;28;20486;-76
2021/08/27 07:10:18;;;;;;;5.05;3.40;;;;;;;;;;4995504;28;20050;-76
2021/08/27 07:12:44;;;;;;;5.63;3.47;;;;;;;;;;4995644;28;20128;-76
2021/08/27 07:15:11;;;;;;;3.85;3.55;;;;;;;;;;4995266;28;20073;-76
2021/08/27 07:17:37;;;;;;;5.40;3.55;;;;;;;;;;4990715;28;20593;-76
2021/08/27 07:20:04;;;;;;;4.45;3.60;;;;;;;;;;4981561;28;20042;-76
2021/08/27 07:22:31;;;;;;;7.25;4.25;;;;;;;;;;4994415;28;20050;-77
2021/08/27 07:24:57;;;;;;;4.00;3.60;;;;;;;;;;4983991;28;20100;-76
2021/08/27 07:27:23;;;;;;;4.40;3.70;;;;;;;;;;4996283;28;20122;-76
2021/08/27 07:29:49;;;;;;;4.07;3.53;;;;;;;;;;4983485;28;20042;-76
2021/08/27 07:32:15;;;;;;;4.13;3.67;;;;;;;;;;4976731;28;20038;-76
2021/08/27 07:34:43;;;;;;;6.25;4.03;;;;;;;;;;4994433;28;20042;-76
2021/08/27 07:37:10;;;;;;;4.28;3.80;;;;;;;;;;4994701;28;20057;-76
2021/08/27 07:39:36;;;;;;;4.82;3.75;;;;;;;;;;4995284;28;20038;-76
2021/08/27 07:42:03;;;;;;;5.43;4.05;;;;;;;;;;4995396;28;20054;-76
2021/08/27 07:44:29;;;;;;;5.03;3.60;;;;;;;;;;4994440;28;20130;-76
2021/08/27 07:46:58;;;;;;;7.07;4.05;;;;;;;;;;4986498;28;20047;-76
2021/08/27 07:49:24;;;;;;;5.43;3.92;;;;;;;;;;4974870;28;20062;-76
2021/08/27 07:51:51;;;;;;;4.43;3.90;;;;;;;;;;4970768;28;20049;-76
2021/08/27 12:16:08;;;;;;;8.90;5.10;;;;;;;;;;5349629;23;20549;-72
2021/08/27 12:18:37;;;;;;;7.32;5.28;;;;;;;;;;4925036;29;20044;-74
2021/08/27 12:21:03;;;;;;;5.97;4.93;;;;;;;;;;4921073;29;20052;-74
2021/08/27 12:23:29;;;;;;;6.20;5.25;;;;;;;;;;4934655;29;20092;-72
2021/08/27 12:26:06;;;;;;;8.75;5.20;;;;;;;;;;4920066;29;20115;-73
2021/08/27 12:28:38;;;;;;;10.25;5.65;;;;;;;;;;4917824;29;20040;-73
2021/08/27 12:31:05;;;;;;;6.50;5.18;;;;;;;;;;4938489;29;20048;-74
2021/08/27 12:33:35;;;;;;;7.63;5.20;;;;;;;;;;4936789;29;20039;-75
2021/08/27 12:36:11;;;;;;;6.03;5.00;;;;;;;;;;4934827;29;20044;-74
2021/08/27 12:38:41;;;;;;;7.93;5.10;;;;;;;;;;4936159;29;20044;-74
2021/08/27 12:41:17;;;;;;;5.40;4.90;;;;;;;;;;4938721;29;20478;-74
2021/08/27 12:43:46;;;;;;;8.45;5.18;;;;;;;;;;4938991;29;20079;-74
2021/08/27 12:46:33;;;;;;;8.15;5.38;;;;;;;;;;4935900;29;20051;-74
2021/08/27 12:49:18;;;;;;;6.13;4.65;;;;;;;;;;4935601;29;20454;-74
2021/08/27 12:51:45;;;;;;;6.93;5.03;;;;;;;;;;4943633;29;20039;-74
2021/08/27 12:54:12;;;;;;;5.88;4.78;;;;;;;;;;4954911;29;20047;-74
2021/08/27 12:56:38;;;;;;;7.10;4.57;;;;;;;;;;4955392;29;20074;-74
2021/08/27 12:59:14;;;;;;;5.95;4.55;;;;;;;;;;4953032;28;20043;-77
2021/08/27 13:01:41;;;;;;;6.35;5.20;;;;;;;;;;4956349;29;20047;-74
2021/08/27 13:04:07;;;;;;;7.15;5.10;;;;;;;;;;4958588;29;20047;-74
2021/08/27 13:06:33;;;;;;;5.47;4.70;;;;;;;;;;4957971;29;20046;-75
2021/08/27 13:09:00;;;;;;;5.40;4.65;;;;;;;;;;4939986;29;20550;-74
2021/08/27 13:11:26;;;;;;;6.13;4.95;;;;;;;;;;4938025;29;20044;-74
2021/08/27 13:13:54;;;;;;;5.97;5.07;;;;;;;;;;4936137;29;20047;-74
2021/08/27 13:16:20;;;;;;;5.15;4.65;;;;;;;;;;4938706;29;20047;-74
2021/08/27 13:18:51;;;;;;;9.82;4.75;;;;;;;;;;4939834;29;20047;-74
2021/08/27 13:21:19;;;;;;;6.78;5.60;;;;;;;;;;4919853;29;20095;-74
2021/08/27 13:23:46;;;;;;;6.10;4.97;;;;;;;;;;4920913;29;20098;-74
2021/08/27 13:26:24;;;;;;;6.38;5.28;;;;;;;;;;4925000;29;20039;-74
2021/08/27 13:28:50;;;;;;;7.20;4.68;;;;;;;;;;4937912;29;20074;-74
2021/08/27 13:31:19;;;;;;;8.93;5.22;;;;;;;;;;4938677;29;20055;-74
2021/08/27 13:33:45;;;;;;;6.30;5.20;;;;;;;;;;4929917;29;20065;-74
2021/08/27 13:36:11;;;;;;;6.63;4.82;;;;;;;;;;4921680;29;20076;-74
2021/08/27 13:38:38;;;;;;;7.88;5.13;;;;;;;;;;4935381;29;20047;-74
2021/08/27 13:41:07;;;;;;;6.50;5.25;;;;;;;;;;4937498;29;20070;-74
2021/08/27 13:43:33;;;;;;;7.43;5.30;;;;;;;;;;4939631;29;20042;-75
2021/08/27 13:45:59;;;;;;;5.57;4.47;;;;;;;;;;4939309;29;20048;-74
2021/08/27 13:48:25;;;;;;;5.68;4.70;;;;;;;;;;4938371;29;20098;-74
2021/08/27 13:50:52;;;;;;;8.25;5.28;;;;;;;;;;4939698;29;20043;-74
2021/08/27 13:53:18;;;;;;;6.95;4.88;;;;;;;;;;4940240;29;20043;-74
2021/08/27 13:55:44;;;;;;;7.57;4.93;;;;;;;;;;4939718;29;20047;-74
2021/08/27 13:58:10;;;;;;;9.25;5.40;;;;;;;;;;4939335;29;20517;-74
2021/08/27 14:00:36;;;;;;;7.95;5.28;;;;;;;;;;4938557;29;20086;-74
2021/08/27 14:03:03;;;;;;;7.28;5.20;;;;;;;;;;4939721;29;20094;-74
2021/08/27 14:05:29;;;;;;;7.05;5.07;;;;;;;;;;4939195;29;20482;-75
2021/08/27 14:07:55;;;;;;;6.00;5.18;;;;;;;;;;4939430;29;20048;-75
2021/08/27 14:10:21;;;;;;;8.20;4.90;;;;;;;;;;4939381;29;20101;-73
2021/08/27 14:12:47;;;;;;;7.22;4.80;;;;;;;;;;4939223;29;20063;-76
2021/08/27 14:15:14;;;;;;;6.28;4.90;;;;;;;;;;4938122;29;20130;-76
2021/08/27 14:17:40;;;;;;;7.88;4.97;;;;;;;;;;4939078;29;20047;-76
2021/08/27 14:20:07;;;;;;;9.10;5.20;;;;;;;;;;4938500;29;20040;-74
2021/08/27 14:22:33;;;;;;;7.80;5.22;;;;;;;;;;4938369;29;20079;-74
2021/08/27 14:25:00;;;;;;;9.10;5.63;;;;;;;;;;4938525;29;20150;-74
2021/08/27 14:27:26;;;;;;;6.18;5.10;;;;;;;;;;4937839;29;20044;-74
2021/08/27 14:29:53;;;;;;;7.53;5.07;;;;;;;;;;4936586;29;20055;-74
2021/08/27 14:32:20;;;;;;;6.88;5.30;;;;;;;;;;4924401;29;20039;-74
2021/08/27 14:34:47;;;;;;;5.55;4.95;;;;;;;;;;4933143;29;20044;-74
2021/08/27 14:37:13;;;;;;;7.50;5.32;;;;;;;;;;4938442;29;20042;-74
2021/08/27 14:39:39;;;;;;;7.25;5.15;;;;;;;;;;4935861;29;20078;-75
2021/08/27 14:42:05;;;;;;;5.93;5.28;;;;;;;;;;4936273;29;20051;-75
2021/08/27 14:44:32;;;;;;;5.82;5.00;;;;;;;;;;4936318;29;20427;-74
2021/08/27 14:46:58;;;;;;;6.70;5.03;;;;;;;;;;4936993;29;20406;-74
2021/08/27 14:49:29;;;;;;;6.05;5.25;;;;;;;;;;4938060;29;20058;-74
2021/08/27 14:51:55;;;;;;;7.45;5.35;;;;;;;;;;4936382;29;20044;-74
2021/08/27 14:54:22;;;;;;;6.03;4.88;;;;;;;;;;4937152;29;20135;-75
2021/08/27 14:56:48;;;;;;;7.18;5.32;;;;;;;;;;4938592;29;20523;-75
2021/08/27 14:59:14;;;;;;;6.43;5.00;;;;;;;;;;4937581;29;20075;-75
2021/08/27 15:01:41;;;;;;;9.48;5.35;;;;;;;;;;4932449;29;20502;-75
2021/08/27 15:04:07;;;;;;;5.32;4.57;;;;;;;;;;4938426;29;20507;-75
2021/08/27 15:06:33;;;;;;;11.13;5.10;;;;;;;;;;4936486;29;20589;-74
2021/08/27 15:08:59;;;;;;;5.70;4.72;;;;;;;;;;4936099;29;20095;-74
2021/08/27 15:11:25;;;;;;;9.30;4.88;;;;;;;;;;4944978;29;20098;-75
2021/08/27 15:13:51;;;;;;;5.55;4.75;;;;;;;;;;4955164;29;20058;-75
2021/08/27 15:16:17;;;;;;;6.28;5.10;;;;;;;;;;4941229;29;20052;-75
2021/08/27 15:18:43;;;;;;;7.57;5.07;;;;;;;;;;4936753;29;20078;-75
2021/08/27 15:21:10;;;;;;;5.55;4.80;;;;;;;;;;4936933;29;20130;-75
2021/08/27 15:23:36;;;;;;;5.68;4.72;;;;;;;;;;4941564;29;20107;-75
2021/08/27 15:26:02;;;;;;;7.50;4.57;;;;;;;;;;4955697;29;20039;-75
2021/08/27 15:28:28;;;;;;;5.78;4.80;;;;;;;;;;4955818;29;20043;-75
2021/08/27 15:30:54;;;;;;;6.40;4.60;;;;;;;;;;4953715;29;20517;-74
2021/08/27 15:33:20;;;;;;;10.25;4.53;;;;;;;;;;4937336;29;20039;-74
2021/08/27 15:35:53;;;;;;;5.32;4.40;;;;;;;;;;4940179;29;20054;-74
2021/08/27 15:38:20;;;;;;;5.88;4.65;;;;;;;;;;4938299;29;20044;-74
2021/08/27 15:40:48;;;;;;;5.93;4.57;;;;;;;;;;4931187;29;20059;-74
2021/08/27 15:43:14;;;;;;;5.95;4.32;;;;;;;;;;4936576;29;20055;-75
2021/08/27 15:45:40;;;;;;;6.97;4.40;;;;;;;;;;4936972;29;20052;-74
2021/08/27 15:48:07;;;;;;;4.60;4.20;;;;;;;;;;4936991;29;20052;-79
2021/08/27 15:50:36;;;;;;;5.82;4.10;;;;;;;;;;4935988;29;20512;-80
2021/08/27 15:53:02;;;;;;;4.55;4.15;;;;;;;;;;4937411;29;20058;-79
2021/08/27 15:55:31;;;;;;;4.90;4.22;;;;;;;;;;4935226;29;20537;-79
2021/08/27 15:57:58;;;;;;;6.85;4.60;;;;;;;;;;4937264;29;20039;-81
2021/08/27 16:00:24;;;;;;;4.75;4.05;;;;;;;;;;4936045;29;20401;-79
2021/08/27 16:02:53;;;;;;;8.90;4.13;;;;;;;;;;4937353;29;20123;-80
2021/08/27 16:05:22;;;;;;;5.57;4.00;;;;;;;;;;4937347;29;20585;-78
2021/08/27 16:07:48;;;;;;;8.27;4.30;;;;;;;;;;4936552;29;20047;-79
2021/08/27 16:10:14;;;;;;;6.82;4.68;;;;;;;;;;4936778;29;20048;-79
2021/08/27 16:12:41;;;;;;;5.03;4.35;;;;;;;;;;4935402;29;20040;-79
2021/08/27 16:15:11;;;;;;;5.28;3.70;;;;;;;;;;4935089;29;20418;-78
2021/08/27 16:17:37;;;;;;;4.35;3.95;;;;;;;;;;4936062;29;20048;-81
2021/08/27 16:20:04;;;;;;;6.78;3.85;;;;;;;;;;4937010;29;20048;-81
2021/08/27 16:22:30;;;;;;;4.60;3.47;;;;;;;;;;4936994;29;20055;-81
2021/08/27 16:24:57;;;;;;;7.03;3.60;;;;;;;;;;4936705;29;20036;-80
2021/08/27 16:27:23;;;;;;;6.40;3.90;;;;;;;;;;4938943;29;20048;-81
2021/08/27 16:29:51;;;;;;;4.35;3.63;;;;;;;;;;4936354;29;20044;-81
2021/08/27 16:32:17;;;;;;;4.88;3.65;;;;;;;;;;4936427;29;20043;-82
2021/08/27 16:34:44;;;;;;;5.22;3.50;;;;;;;;;;4937400;29;20143;-81
2021/08/27 16:37:10;;;;;;;5.68;3.55;;;;;;;;;;4941069;29;20529;-80
2021/08/27 16:39:36;;;;;;;5.07;3.35;;;;;;;;;;4940672;29;20054;-80
2021/08/27 16:42:03;;;;;;;4.45;3.75;;;;;;;;;;4940338;29;20044;-81
2021/08/27 16:44:29;;;;;;;3.38;3.05;;;;;;;;;;4940447;29;20044;-77
2021/08/27 16:46:55;;;;;;;4.75;3.22;;;;;;;;;;4939508;29;20465;-77
2021/08/27 16:49:21;;;;;;;5.43;3.47;;;;;;;;;;4939605;29;20043;-77
2021/08/27 16:51:47;;;;;;;4.38;3.35;;;;;;;;;;4938276;29;20529;-77
2021/08/27 16:54:14;;;;;;;5.85;3.33;;;;;;;;;;4936949;29;20048;-78
2021/08/27 16:56:41;;;;;;;4.78;3.03;;;;;;;;;;4940109;29;20036;-78
2021/08/27 16:59:07;;;;;;;6.68;3.17;;;;;;;;;;4938222;29;20102;-79
2021/08/27 17:01:35;;;;;;;4.18;3.28;;;;;;;;;;4939669;29;20106;-77
2021/08/27 17:04:01;;;;;;;3.67;3.00;;;;;;;;;;4939904;29;20086;-78
2021/08/27 17:06:27;;;;;;;6.97;2.85;;;;;;;;;;4940139;29;20066;-78
2021/08/27 17:08:53;;;;;;;4.20;3.10;;;;;;;;;;4938508;29;20131;-78
2021/08/27 17:11:20;;;;;;;2.97;2.65;;;;;;;;;;4938768;29;20042;-78
2021/08/27 17:13:46;;;;;;;4.50;3.10;;;;;;;;;;4938699;29;20050;-77
2021/08/27 17:16:12;;;;;;;5.60;2.90;;;;;;;;;;4939431;29;20048;-77
2021/08/27 17:18:41;;;;;;;2.95;2.65;;;;;;;;;;4939848;29;20047;-78
2021/08/27 17:21:07;;;;;;;3.35;3.00;;;;;;;;;;4925323;29;20048;-78
2021/08/27 17:23:34;;;;;;;5.47;3.10;;;;;;;;;;4920844;29;20495;-78
2021/08/27 17:26:00;;;;;;;3.85;3.40;;;;;;;;;;4919838;29;20040;-77
2021/08/27 17:28:27;;;;;;;3.42;2.72;;;;;;;;;;4921451;29;20033;-77
2021/08/27 17:30:53;;;;;;;4.50;3.10;;;;;;;;;;4930147;29;20043;-78
2021/08/27 17:33:19;;;;;;;5.93;2.58;;;;;;;;;;4938824;29;20039;-77
2021/08/27 17:35:45;;;;;;;5.55;4.30;;;;;;;;;;4939298;29;20125;-77
2021/08/27 17:38:15;;;;;;;7.65;4.15;;;;;;;;;;4938669;29;20118;-77
2021/08/27 17:40:41;;;;;;;5.03;3.55;;;;;;;;;;4938824;29;20043;-78
2021/08/27 17:43:08;;;;;;;4.75;2.92;;;;;;;;;;4938737;29;20047;-77
2021/08/27 17:45:34;;;;;;;5.95;2.90;;;;;;;;;;4936994;29;20138;-77
2021/08/27 17:48:00;;;;;;;4.00;3.13;;;;;;;;;;4938987;29;20494;-77
2021/08/27 17:50:26;;;;;;;3.42;2.90;;;;;;;;;;4937946;29;20566;-78
2021/08/27 17:52:53;;;;;;;4.88;2.80;;;;;;;;;;4938731;29;20486;-77
2021/08/27 17:55:19;;;;;;;4.30;2.70;;;;;;;;;;4937644;29;20039;-77
2021/08/27 17:57:45;;;;;;;3.45;2.83;;;;;;;;;;4935588;29;20071;-78
2021/08/27 18:00:12;;;;;;;4.63;2.95;;;;;;;;;;4937879;29;20142;-78
2021/08/27 18:02:41;;;;;;;3.47;2.75;;;;;;;;;;4936352;29;20048;-78
2021/08/27 18:05:08;;;;;;;7.03;3.10;;;;;;;;;;4936771;29;20166;-78
2021/08/27 18:07:37;;;;;;;3.65;3.17;;;;;;;;;;4935690;29;20483;-79
2021/08/27 18:10:04;;;;;;;6.55;3.60;;;;;;;;;;4937627;29;20138;-77
2021/08/27 18:12:30;;;;;;;4.82;4.15;;;;;;;;;;4936713;29;20070;-77
2021/08/27 18:14:56;;;;;;;5.68;3.03;;;;;;;;;;4936901;29;20040;-77
2021/08/27 18:17:25;;;;;;;5.13;3.03;;;;;;;;;;4936627;29;20569;-75
2021/08/27 18:19:51;;;;;;;9.43;3.15;;;;;;;;;;4938492;29;20134;-69
2021/08/27 18:22:17;;;;;;;4.90;2.90;;;;;;;;;;4937859;29;20048;-70
2021/08/27 18:24:44;;;;;;;4.72;2.95;;;;;;;;;;4937661;29;20048;-70
2021/08/27 18:27:10;;;;;;;6.90;3.17;;;;;;;;;;4938027;29;20051;-69
2021/08/27 18:29:36;;;;;;;7.25;3.40;;;;;;;;;;4937979;29;20050;-69
2021/08/27 18:32:03;;;;;;;6.40;3.25;;;;;;;;;;4936675;29;20470;-70
2021/08/27 18:34:29;;;;;;;3.70;2.88;;;;;;;;;;4937443;29;20094;-71
2021/08/27 18:36:55;;;;;;;10.57;3.42;;;;;;;;;;4937706;29;20585;-74
2021/08/27 18:39:21;;;;;;;25.48;4.72;;;;;;;;;;4936765;29;20043;-74
2021/08/27 18:41:47;;;;;;;3.67;3.13;;;;;;;;;;4938419;29;20131;-74
2021/08/27 18:44:14;;;;;;;4.82;3.20;;;;;;;;;;4937658;29;20077;-72
2021/08/27 18:46:40;;;;;;;4.57;2.67;;;;;;;;;;4936694;29;20059;-71
2021/08/27 18:49:06;;;;;;;5.82;3.50;;;;;;;;;;4937615;29;20047;-69
2021/08/27 18:51:32;;;;;;;4.05;2.83;;;;;;;;;;4936610;29;20047;-70
2021/08/27 18:53:59;;;;;;;4.60;3.22;;;;;;;;;;4939660;29;20048;-79
2021/08/27 18:56:27;;;;;;;3.30;3.00;;;;;;;;;;4936319;29;20039;-76
2021/08/27 18:58:53;;;;;;;5.40;2.78;;;;;;;;;;4935089;29;20046;-78
2021/08/27 19:01:22;;;;;;;4.00;3.20;;;;;;;;;;4937954;29;20048;-74
2021/08/27 19:03:48;;;;;;;3.83;2.88;;;;;;;;;;4942197;29;20071;-74
2021/08/27 19:06:14;;;;;;;4.68;2.97;;;;;;;;;;4932991;29;20402;-74
2021/08/27 19:08:40;;;;;;;5.60;2.75;;;;;;;;;;4936262;29;20039;-76